Time;durP1;ratioP1;P1;durP2;ratioP2;P2;SDS_P1;SDS_P2;PMS_P1;PMS_P2;Temp;Humidity;BMP_temperature;BMP_pressure;BME280_temperature;BME280_humidity;BME280_pressure;Samples;Min_cycle;Max_cycle;Signal;HPM_P1;HPM_P2
2024/02/11 00:00:53;;;;;;;8.63;7.70;;;11.10;99.90;;;;;;5030310;28;20456;-67
2024/02/11 00:03:27;;;;;;;8.37;7.47;;;11.00;99.90;;;;;;5031185;28;20471;-70
2024/02/11 00:05:54;;;;;;;8.37;7.57;;;11.00;99.90;;;;;;5031908;28;20448;-72
2024/02/11 00:08:19;;;;;;;9.67;7.07;;;11.00;99.90;;;;;;5032289;28;20440;-75
2024/02/11 00:10:45;;;;;;;8.70;7.80;;;10.90;99.90;;;;;;5031639;28;20433;-70
2024/02/11 00:13:12;;;;;;;8.20;7.27;;;10.90;99.90;;;;;;5032492;28;20188;-68
2024/02/11 00:15:39;;;;;;;8.50;7.40;;;10.90;99.90;;;;;;5033117;28;20178;-71
2024/02/11 00:18:05;;;;;;;9.13;8.27;;;10.80;99.90;;;;;;5032907;28;20533;-67
2024/02/11 00:20:31;;;;;;;9.23;8.30;;;10.80;99.90;;;;;;5029856;28;20898;-68
2024/02/11 00:22:57;;;;;;;10.17;8.43;;;10.80;99.90;;;;;;5032392;28;20475;-66
2024/02/11 00:25:22;;;;;;;9.93;8.90;;;10.80;99.90;;;;;;5032355;28;20923;-69
2024/02/11 00:27:52;;;;;;;9.00;8.20;;;10.80;99.90;;;;;;5030934;28;20182;-67
2024/02/11 00:30:22;;;;;;;8.70;7.90;;;10.80;99.90;;;;;;5031494;28;20193;-73
2024/02/11 00:32:48;;;;;;;9.50;8.60;;;10.70;99.90;;;;;;5033104;28;20420;-70
2024/02/11 00:35:18;;;;;;;8.17;7.37;;;10.70;99.90;;;;;;5032697;28;20427;-66
2024/02/11 00:37:44;;;;;;;10.57;9.20;;;10.70;99.90;;;;;;5033066;28;20213;-67
2024/02/11 00:40:10;;;;;;;8.37;7.67;;;10.70;99.90;;;;;;5033326;28;20417;-68
2024/02/11 00:42:36;;;;;;;8.97;8.10;;;10.60;99.90;;;;;;5031375;28;20538;-67
2024/02/11 00:45:06;;;;;;;9.17;8.30;;;10.60;99.90;;;;;;5030847;28;20926;-69
2024/02/11 00:47:32;;;;;;;9.73;8.73;;;10.60;99.90;;;;;;5031216;28;20797;-68
2024/02/11 00:49:57;;;;;;;9.23;8.33;;;10.60;99.90;;;;;;5032924;28;20519;-72
2024/02/11 00:52:23;;;;;;;9.43;8.53;;;10.60;99.90;;;;;;5030241;28;20452;-69
2024/02/11 00:54:50;;;;;;;9.37;8.57;;;10.60;99.90;;;;;;5033521;28;20255;-67
2024/02/11 00:57:16;;;;;;;10.70;9.67;;;10.50;99.90;;;;;;5032015;28;20201;-71
2024/02/11 00:59:42;;;;;;;10.40;8.57;;;10.50;99.90;;;;;;5032003;28;20763;-65
2024/02/11 01:02:11;;;;;;;9.73;8.83;;;10.50;99.90;;;;;;5032345;28;20530;-65
2024/02/11 01:04:38;;;;;;;9.40;8.50;;;10.50;99.90;;;;;;5032381;28;20300;-72
2024/02/11 01:07:07;;;;;;;10.27;9.27;;;10.50;99.90;;;;;;5032142;28;20428;-67
2024/02/11 01:09:33;;;;;;;10.00;9.10;;;10.50;99.90;;;;;;5031684;28;20519;-67
2024/02/11 01:11:59;;;;;;;10.13;9.20;;;10.50;99.90;;;;;;5032797;28;20424;-71
2024/02/11 01:14:25;;;;;;;9.87;8.97;;;10.50;99.90;;;;;;5029643;28;21319;-70
2024/02/11 01:16:50;;;;;;;8.57;7.77;;;10.40;99.90;;;;;;5031508;28;20478;-67
2024/02/11 01:19:16;;;;;;;10.50;9.40;;;10.40;99.90;;;;;;5032138;28;20189;-71
2024/02/11 01:21:44;;;;;;;9.87;8.93;;;10.50;99.90;;;;;;5031161;28;20218;-69
2024/02/11 01:24:10;;;;;;;12.17;9.77;;;10.40;99.90;;;;;;5032230;28;20190;-71
2024/02/11 01:26:37;;;;;;;10.57;9.47;;;10.40;99.90;;;;;;5030907;28;20417;-71
2024/02/11 01:29:06;;;;;;;12.20;11.00;;;10.50;99.90;;;;;;5028043;28;20795;-70
2024/02/11 01:31:32;;;;;;;11.30;10.10;;;10.50;99.90;;;;;;5029652;28;20929;-69
2024/02/11 01:33:57;;;;;;;10.77;9.70;;;10.50;99.90;;;;;;5032492;28;20452;-68
2024/02/11 01:36:23;;;;;;;11.40;9.37;;;10.50;99.90;;;;;;5031058;28;20891;-67
2024/02/11 01:38:49;;;;;;;11.10;9.30;;;10.50;99.90;;;;;;5032606;28;20256;-69
2024/02/11 01:41:15;;;;;;;11.10;9.40;;;10.50;99.90;;;;;;5031355;28;20212;-68
2024/02/11 01:43:41;;;;;;;12.43;10.37;;;10.50;99.90;;;;;;5031755;28;20670;-70
2024/02/11 01:46:06;;;;;;;9.80;8.80;;;10.50;99.90;;;;;;5031201;28;20194;-67
2024/02/11 01:48:33;;;;;;;10.90;9.37;;;10.60;99.90;;;;;;5030329;28;20189;-69
2024/02/11 01:50:59;;;;;;;10.40;8.60;;;10.50;99.90;;;;;;5031888;28;20174;-71
2024/02/11 01:53:27;;;;;;;11.40;10.20;;;10.50;99.90;;;;;;5028871;28;21149;-68
2024/02/11 01:55:54;;;;;;;9.73;8.50;;;10.60;99.90;;;;;;5029815;28;20425;-72
2024/02/11 01:58:20;;;;;;;10.43;8.97;;;10.60;99.90;;;;;;5029554;28;20428;-73
2024/02/11 02:00:48;;;;;;;9.73;8.40;;;10.60;99.90;;;;;;5028063;28;21157;-71
2024/02/11 02:03:15;;;;;;;9.90;8.90;;;10.60;99.90;;;;;;5028875;28;20475;-70
2024/02/11 02:05:41;;;;;;;13.50;9.80;;;10.60;99.90;;;;;;5028683;28;20517;-68
2024/02/11 02:08:08;;;;;;;10.23;8.70;;;10.60;99.90;;;;;;5031640;28;20580;-64
2024/02/11 02:10:38;;;;;;;10.30;8.87;;;10.60;99.90;;;;;;5029987;28;20621;-66
2024/02/11 02:13:04;;;;;;;12.27;9.90;;;10.60;99.90;;;;;;5031200;28;20443;-64
2024/02/11 02:15:30;;;;;;;10.30;9.20;;;10.50;99.90;;;;;;5029385;28;20936;-67
2024/02/11 02:17:55;;;;;;;11.03;9.90;;;10.50;99.90;;;;;;5031017;28;20204;-68
2024/02/11 02:20:21;;;;;;;10.10;9.00;;;10.60;99.90;;;;;;5030750;28;20923;-68
2024/02/11 02:22:47;;;;;;;10.40;9.10;;;10.50;99.90;;;;;;5031081;28;20214;-69
2024/02/11 02:25:13;;;;;;;12.17;8.63;;;10.50;99.90;;;;;;5030612;28;20281;-67
2024/02/11 02:27:40;;;;;;;10.00;8.53;;;10.50;99.90;;;;;;5029054;28;20425;-68
2024/02/11 02:30:07;;;;;;;10.60;8.60;;;10.50;99.90;;;;;;5031495;28;20468;-66
2024/02/11 02:32:34;;;;;;;11.13;7.33;;;10.60;99.90;;;;;;5029103;28;20435;-66
2024/02/11 02:35:00;;;;;;;9.30;8.40;;;10.60;99.90;;;;;;5031213;28;20471;-73
2024/02/11 02:37:26;;;;;;;9.43;8.53;;;10.50;99.90;;;;;;5030387;28;20432;-67
2024/02/11 02:39:52;;;;;;;8.43;7.60;;;10.50;99.90;;;;;;5030035;28;20448;-67
2024/02/11 02:42:20;;;;;;;8.60;7.67;;;10.50;99.90;;;;;;5029928;28;20471;-67
2024/02/11 02:44:46;;;;;;;7.93;7.13;;;10.60;99.90;;;;;;5029783;28;20186;-67
2024/02/11 02:47:12;;;;;;;7.83;7.10;;;10.60;99.90;;;;;;5030272;28;20481;-67
2024/02/11 02:49:39;;;;;;;9.47;6.70;;;10.60;99.90;;;;;;5029514;28;20558;-70
2024/02/11 02:52:06;;;;;;;10.70;6.80;;;10.60;99.90;;;;;;5031064;28;20433;-70
2024/02/11 02:54:33;;;;;;;8.50;7.70;;;10.60;99.90;;;;;;5030131;28;20440;-70
2024/02/11 02:56:59;;;;;;;8.17;7.37;;;10.60;99.90;;;;;;5029596;28;20417;-70
2024/02/11 02:59:25;;;;;;;7.60;6.90;;;10.60;99.90;;;;;;5028810;28;20438;-70
2024/02/11 03:02:01;;;;;;;8.63;7.73;;;10.60;99.90;;;;;;5030138;28;20216;-68
2024/02/11 03:04:26;;;;;;;7.37;6.67;;;10.60;99.90;;;;;;5028712;28;20580;-68
2024/02/11 03:06:52;;;;;;;7.17;6.57;;;10.60;99.90;;;;;;5028503;28;20473;-68
2024/02/11 03:09:18;;;;;;;7.10;6.40;;;10.60;99.90;;;;;;5030690;28;20281;-71
2024/02/11 03:11:45;;;;;;;7.20;6.50;;;10.60;99.90;;;;;;5028592;28;20718;-68
2024/02/11 03:14:10;;;;;;;7.13;5.97;;;10.70;99.90;;;;;;5032263;28;20177;-68
2024/02/11 03:16:36;;;;;;;6.23;5.53;;;10.60;99.90;;;;;;5033000;28;20425;-65
2024/02/11 03:19:05;;;;;;;6.43;5.63;;;10.60;99.90;;;;;;5034499;28;20283;-67
2024/02/11 03:21:31;;;;;;;7.13;5.73;;;10.70;99.90;;;;;;5031202;28;20264;-70
2024/02/11 03:23:56;;;;;;;6.87;6.27;;;10.60;99.90;;;;;;5033558;28;21151;-65
2024/02/11 03:26:22;;;;;;;8.37;6.60;;;10.60;99.90;;;;;;5033948;28;20273;-67
2024/02/11 03:28:49;;;;;;;7.13;6.30;;;10.60;99.90;;;;;;5032693;28;20202;-69
2024/02/11 03:31:15;;;;;;;7.10;6.00;;;10.50;99.90;;;;;;5033978;28;20268;-67
2024/02/11 03:33:40;;;;;;;6.80;6.07;;;10.50;99.90;;;;;;5033814;28;20516;-68
2024/02/11 03:36:06;;;;;;;7.50;6.40;;;10.50;99.90;;;;;;5032831;28;20184;-70
2024/02/11 03:38:32;;;;;;;7.03;6.30;;;10.50;99.90;;;;;;5028211;28;20734;-68
2024/02/11 03:40:57;;;;;;;7.37;6.40;;;10.50;99.90;;;;;;5030205;28;20186;-70
2024/02/11 03:43:23;;;;;;;7.37;6.50;;;10.50;99.90;;;;;;5033329;28;20988;-66
2024/02/11 03:45:50;;;;;;;7.30;6.60;;;10.50;99.90;;;;;;5030367;28;20186;-72
2024/02/11 03:48:18;;;;;;;9.17;7.10;;;10.50;99.90;;;;;;5032691;28;20651;-71
2024/02/11 03:50:45;;;;;;;9.10;7.50;;;10.50;99.90;;;;;;5031772;28;20482;-65
2024/02/11 03:53:14;;;;;;;7.73;6.97;;;10.50;99.90;;;;;;5033882;28;20429;-70
2024/02/11 03:55:40;;;;;;;7.33;6.63;;;10.40;99.90;;;;;;5032390;28;20447;-66
2024/02/11 03:58:07;;;;;;;9.57;7.20;;;10.40;99.90;;;;;;5032035;28;20432;-67
2024/02/11 04:00:32;;;;;;;8.07;7.13;;;10.40;99.90;;;;;;5032270;28;20434;-68
2024/02/11 04:02:58;;;;;;;9.83;6.83;;;10.40;99.90;;;;;;5032417;28;21056;-67
2024/02/11 04:05:26;;;;;;;7.47;5.83;;;10.30;99.90;;;;;;5031556;28;20577;-69
2024/02/11 04:07:53;;;;;;;6.80;6.10;;;10.30;99.90;;;;;;5032314;28;20432;-68
2024/02/11 04:10:19;;;;;;;7.23;5.80;;;10.20;99.90;;;;;;5031327;28;20429;-69
2024/02/11 04:12:52;;;;;;;6.47;5.33;;;10.20;99.90;;;;;;5031931;28;20498;-71
2024/02/11 04:15:24;;;;;;;7.00;6.20;;;10.30;99.90;;;;;;5029965;28;20441;-70
2024/02/11 04:17:56;;;;;;;6.03;5.43;;;10.20;99.90;;;;;;5031468;28;20824;-65
2024/02/11 04:20:29;;;;;;;5.97;5.47;;;10.20;99.90;;;;;;5031002;28;20434;-67
2024/02/11 04:22:57;;;;;;;5.97;5.33;;;10.30;99.90;;;;;;5032533;28;20460;-73
2024/02/11 04:25:25;;;;;;;6.10;5.60;;;10.20;99.90;;;;;;5030656;28;20507;-66
2024/02/11 04:27:51;;;;;;;6.60;5.40;;;10.20;99.90;;;;;;5028941;28;20567;-70
2024/02/11 04:30:19;;;;;;;5.40;4.83;;;10.20;99.90;;;;;;5030922;28;20507;-67
2024/02/11 04:32:48;;;;;;;6.23;5.63;;;10.20;99.90;;;;;;5031155;28;20579;-73
2024/02/11 04:35:15;;;;;;;6.27;5.67;;;10.10;99.90;;;;;;5030665;28;21089;-68
2024/02/11 04:37:53;;;;;;;6.20;5.60;;;10.20;99.90;;;;;;5031405;28;20436;-71
2024/02/11 04:40:20;;;;;;;6.43;5.83;;;10.20;99.90;;;;;;5032049;28;20432;-70
2024/02/11 04:42:47;;;;;;;6.60;5.93;;;10.20;99.90;;;;;;5031826;28;21019;-66
2024/02/11 04:45:17;;;;;;;6.30;5.70;;;10.30;99.90;;;;;;5031625;28;20498;-66
2024/02/11 04:47:48;;;;;;;6.57;5.20;;;10.40;99.90;;;;;;5030252;28;20445;-71
2024/02/11 04:50:19;;;;;;;6.20;4.70;;;10.40;99.90;;;;;;5031428;28;20461;-70
2024/02/11 04:52:54;;;;;;;5.83;5.20;;;10.40;99.90;;;;;;5031585;28;20508;-69
2024/02/11 04:55:27;;;;;;;5.67;5.10;;;10.40;99.90;;;;;;5031781;28;20424;-70
2024/02/11 04:57:58;;;;;;;5.40;4.90;;;10.50;99.90;;;;;;5031175;28;20490;-70
2024/02/11 05:00:28;;;;;;;5.47;4.70;;;10.50;99.90;;;;;;5031364;28;20436;-71
2024/02/11 05:02:58;;;;;;;5.90;5.30;;;10.60;99.90;;;;;;5031733;28;20472;-70
2024/02/11 05:05:28;;;;;;;6.70;5.00;;;10.70;99.90;;;;;;5030336;28;20439;-67
2024/02/11 05:08:17;;;;;;;6.30;4.90;;;10.70;99.90;;;;;;5031054;28;20452;-68
2024/02/11 05:10:44;;;;;;;7.67;6.20;;;10.70;99.90;;;;;;5030817;28;21278;-71
2024/02/11 05:13:14;;;;;;;5.97;5.37;;;10.70;99.90;;;;;;5029582;28;20434;-67
2024/02/11 05:15:44;;;;;;;7.00;4.90;;;10.60;99.90;;;;;;5030608;28;20428;-71
2024/02/11 05:18:11;;;;;;;5.83;4.50;;;10.60;99.90;;;;;;5014306;28;20934;-67
2024/02/11 05:20:38;;;;;;;5.73;5.20;;;10.60;99.90;;;;;;5030785;28;20453;-64
2024/02/11 05:23:11;;;;;;;5.47;4.47;;;10.60;99.90;;;;;;5030734;28;20987;-70
2024/02/11 05:25:40;;;;;;;6.60;5.40;;;10.50;99.90;;;;;;5061994;28;20508;-64
2024/02/11 05:28:09;;;;;;;5.53;5.03;;;10.50;99.90;;;;;;5026619;28;20420;-71
2024/02/11 05:30:42;;;;;;;5.70;4.80;;;10.50;99.90;;;;;;5031196;28;20434;-66
2024/02/11 05:33:09;;;;;;;5.60;5.00;;;10.60;99.90;;;;;;5031299;28;20456;-67
2024/02/11 05:35:37;;;;;;;9.30;5.30;;;10.60;99.90;;;;;;5029583;28;20432;-71
2024/02/11 05:38:08;;;;;;;5.67;5.17;;;10.70;99.90;;;;;;5031417;28;20438;-64
2024/02/11 05:40:41;;;;;;;5.40;4.90;;;10.70;99.90;;;;;;5027670;28;20449;-67
2024/02/11 05:43:08;;;;;;;7.60;6.37;;;10.70;99.90;;;;;;5030675;28;20483;-69
2024/02/11 05:45:35;;;;;;;8.33;6.17;;;10.70;99.90;;;;;;5030598;28;20442;-68
2024/02/11 05:48:01;;;;;;;8.80;5.47;;;10.70;99.90;;;;;;5029485;28;20440;-66
2024/02/11 05:50:27;;;;;;;6.50;5.70;;;10.80;99.90;;;;;;5029503;28;20432;-72
2024/02/11 05:52:54;;;;;;;7.00;6.00;;;10.70;99.90;;;;;;5029683;28;20963;-69
2024/02/11 05:55:20;;;;;;;6.27;5.47;;;10.70;99.90;;;;;;5029508;28;20189;-71
2024/02/11 05:57:48;;;;;;;7.40;5.37;;;10.80;99.90;;;;;;5029557;28;20424;-68
2024/02/11 06:00:18;;;;;;;6.40;5.43;;;10.80;99.90;;;;;;5029912;28;20478;-67
2024/02/11 06:02:49;;;;;;;8.10;6.40;;;10.80;99.90;;;;;;5031329;28;20479;-69
2024/02/11 06:05:16;;;;;;;5.97;5.37;;;10.80;99.90;;;;;;5030665;28;20427;-67
2024/02/11 06:07:54;;;;;;;7.73;5.90;;;10.80;99.90;;;;;;5030588;28;20515;-67
2024/02/11 06:10:23;;;;;;;5.50;5.00;;;10.90;99.90;;;;;;5029699;28;20422;-70
2024/02/11 06:12:49;;;;;;;6.60;5.57;;;10.90;99.90;;;;;;5030245;28;20440;-71
2024/02/11 06:15:20;;;;;;;7.30;5.73;;;10.90;99.90;;;;;;5029906;28;20421;-70
2024/02/11 06:17:46;;;;;;;5.83;5.23;;;10.90;99.90;;;;;;5030207;28;20468;-69
2024/02/11 06:20:17;;;;;;;4.80;4.40;;;10.90;99.90;;;;;;5031009;28;20422;-71
2024/02/11 06:22:50;;;;;;;5.73;4.90;;;10.90;99.90;;;;;;5031052;28;20465;-65
2024/02/11 06:25:19;;;;;;;4.63;4.23;;;10.90;99.90;;;;;;5029428;28;20428;-67
2024/02/11 06:27:46;;;;;;;5.50;5.00;;;10.90;99.90;;;;;;5029115;28;20520;-70
2024/02/11 06:30:12;;;;;;;5.37;4.57;;;11.00;99.90;;;;;;5029845;28;20437;-68
2024/02/11 06:32:51;;;;;;;4.83;4.40;;;11.00;99.90;;;;;;5030754;28;20429;-71
2024/02/11 06:35:18;;;;;;;5.00;4.50;;;11.00;99.90;;;;;;5029710;28;20200;-71
2024/02/11 06:37:47;;;;;;;4.53;4.13;;;11.00;99.90;;;;;;5030543;28;21308;-71
2024/02/11 06:40:16;;;;;;;4.70;4.30;;;11.00;99.90;;;;;;5029807;28;20429;-69
2024/02/11 06:42:42;;;;;;;4.50;4.10;;;10.90;99.90;;;;;;5030115;28;20496;-71
2024/02/11 06:45:12;;;;;;;4.47;4.10;;;11.00;99.90;;;;;;5028792;28;20432;-69
2024/02/11 06:47:38;;;;;;;3.83;3.53;;;11.00;99.90;;;;;;5029038;28;20486;-70
2024/02/11 06:50:05;;;;;;;3.97;3.63;;;10.90;99.90;;;;;;5033077;28;20428;-72
2024/02/11 06:52:31;;;;;;;1.53;1.43;;;10.90;99.90;;;;;;5033327;28;20448;-68
2024/02/11 06:54:56;;;;;;;1.43;1.20;;;10.80;99.90;;;;;;5033300;28;20436;-70
2024/02/11 06:57:22;;;;;;;1.07;1.00;;;10.80;99.90;;;;;;5033680;28;20190;-64
2024/02/11 06:59:49;;;;;;;1.70;1.37;;;10.70;99.90;;;;;;5035169;28;20181;-67
2024/02/11 07:02:15;;;;;;;0.80;0.80;;;10.50;99.90;;;;;;5033861;28;20222;-70
2024/02/11 07:04:44;;;;;;;3.27;1.40;;;10.50;99.90;;;;;;5033062;28;20922;-65
2024/02/11 07:07:10;;;;;;;1.60;1.37;;;10.40;99.90;;;;;;5032019;28;20716;-66
2024/02/11 07:09:36;;;;;;;2.13;1.80;;;10.40;99.90;;;;;;5033920;28;21266;-71
2024/02/11 07:12:02;;;;;;;2.10;1.87;;;10.40;99.90;;;;;;5033571;28;20186;-64
2024/02/11 07:14:27;;;;;;;3.03;2.23;;;10.30;99.90;;;;;;5033628;28;20435;-69
2024/02/11 07:16:58;;;;;;;2.17;2.07;;;10.30;99.90;;;;;;5034123;28;21258;-69
2024/02/11 07:19:24;;;;;;;2.50;2.30;;;10.30;99.90;;;;;;5028787;28;20244;-70
2024/02/11 07:21:52;;;;;;;2.93;2.60;;;10.30;99.90;;;;;;5033161;28;20491;-73
2024/02/11 07:24:18;;;;;;;3.10;2.77;;;10.20;99.90;;;;;;5031926;28;20420;-68
2024/02/11 07:26:47;;;;;;;3.97;2.80;;;10.20;99.90;;;;;;5030847;28;20851;-73
2024/02/11 07:29:13;;;;;;;4.90;2.63;;;10.10;99.90;;;;;;5031577;28;20433;-66
2024/02/11 07:31:39;;;;;;;6.03;2.60;;;10.10;99.90;;;;;;5030113;28;20490;-69
2024/02/11 07:34:05;;;;;;;6.83;2.90;;;10.10;99.90;;;;;;5031464;28;20478;-72
2024/02/11 07:36:31;;;;;;;3.70;2.70;;;10.10;99.90;;;;;;5031530;28;20428;-67
2024/02/11 07:38:57;;;;;;;4.53;2.40;;;10.10;99.90;;;;;;5034140;28;20431;-69
2024/02/11 07:41:23;;;;;;;3.93;2.50;;;10.10;99.90;;;;;;5033135;28;20206;-68
2024/02/11 07:43:52;;;;;;;5.70;2.30;;;10.10;99.90;;;;;;5027733;28;20216;-67
2024/02/11 07:46:19;;;;;;;7.57;3.10;;;10.00;99.90;;;;;;5030016;28;20562;-70
2024/02/11 07:48:47;;;;;;;4.30;2.10;;;10.00;99.90;;;;;;5032551;28;20947;-71
2024/02/11 07:51:14;;;;;;;3.30;2.20;;;10.00;99.90;;;;;;5031041;28;20541;-66
2024/02/11 07:53:40;;;;;;;4.50;2.40;;;10.00;99.90;;;;;;5031810;28;20424;-66
2024/02/11 07:56:14;;;;;;;5.00;3.90;;;10.00;99.90;;;;;;5030755;28;20420;-70
2024/02/11 07:58:43;;;;;;;4.13;2.43;;;10.00;99.90;;;;;;5030723;28;20475;-69
2024/02/11 08:01:08;;;;;;;6.00;2.20;;;10.00;99.90;;;;;;5030490;28;20428;-72
2024/02/11 08:03:34;;;;;;;5.73;2.50;;;10.00;99.90;;;;;;5031310;28;20737;-67
2024/02/11 08:06:00;;;;;;;4.20;2.23;;;10.00;99.90;;;;;;5032679;28;20193;-69
2024/02/11 08:08:26;;;;;;;6.93;2.27;;;10.00;99.90;;;;;;5029538;28;20370;-67
2024/02/11 08:10:52;;;;;;;4.90;2.67;;;10.00;99.90;;;;;;5032310;28;21354;-72
2024/02/11 08:13:18;;;;;;;5.90;2.60;;;9.90;99.90;;;;;;5031621;28;20188;-69
2024/02/11 08:15:46;;;;;;;4.77;2.33;;;9.90;99.90;;;;;;5019584;28;20441;-67
2024/02/11 08:18:12;;;;;;;5.03;2.50;;;9.80;99.90;;;;;;5029620;28;20852;-67
2024/02/11 08:20:38;;;;;;;4.37;1.93;;;9.90;99.90;;;;;;5028130;28;20476;-70
2024/02/11 08:23:05;;;;;;;3.23;2.83;;;9.90;99.90;;;;;;5030156;28;20487;-67
2024/02/11 08:25:31;;;;;;;9.30;2.60;;;9.80;99.90;;;;;;5028705;28;20805;-67
2024/02/11 08:27:57;;;;;;;4.57;2.40;;;9.80;99.90;;;;;;5028012;28;20425;-70
2024/02/11 08:30:23;;;;;;;6.00;2.73;;;9.80;99.90;;;;;;5028794;28;20491;-69
2024/02/11 08:32:48;;;;;;;6.73;2.90;;;9.70;99.90;;;;;;5027625;28;20183;-68
2024/02/11 08:35:15;;;;;;;4.30;2.77;;;9.80;99.90;;;;;;5030260;28;20431;-68
2024/02/11 08:37:44;;;;;;;9.03;2.43;;;9.80;99.90;;;;;;5029660;28;20190;-67
2024/02/11 08:40:12;;;;;;;6.73;2.87;;;9.80;99.90;;;;;;5013954;28;20437;-67
2024/02/11 08:42:38;;;;;;;3.97;2.70;;;9.80;99.90;;;;;;5027822;28;20461;-67
2024/02/11 08:45:04;;;;;;;13.73;3.80;;;9.80;99.90;;;;;;5030150;28;20819;-70
2024/02/11 08:47:30;;;;;;;7.97;2.63;;;9.80;99.90;;;;;;5028740;28;21023;-69
2024/02/11 08:49:56;;;;;;;8.87;3.57;;;9.80;99.90;;;;;;5028044;28;20441;-69
2024/02/11 08:52:21;;;;;;;8.30;3.63;;;9.80;99.90;;;;;;5028848;28;20190;-69
2024/02/11 08:54:47;;;;;;;7.13;3.37;;;9.80;99.90;;;;;;5027655;28;20475;-66
2024/02/11 08:57:17;;;;;;;5.57;3.40;;;9.90;99.90;;;;;;5029494;28;20577;-70
2024/02/11 08:59:47;;;;;;;10.63;4.50;;;9.80;99.90;;;;;;5028248;28;20174;-69
2024/02/11 09:02:14;;;;;;;7.97;3.40;;;9.90;99.90;;;;;;5028675;28;20491;-66
2024/02/11 09:04:41;;;;;;;6.33;3.53;;;9.80;99.90;;;;;;5028820;28;20512;-70
2024/02/11 09:07:08;;;;;;;5.30;2.90;;;9.80;99.90;;;;;;5027128;28;20439;-72
2024/02/11 09:09:35;;;;;;;8.43;3.57;;;9.80;99.90;;;;;;5028424;28;21111;-68
2024/02/11 09:12:02;;;;;;;6.80;3.43;;;9.80;99.90;;;;;;5027974;28;20437;-73
2024/02/11 09:14:29;;;;;;;6.50;4.00;;;9.80;99.90;;;;;;5026092;28;21092;-69
2024/02/11 09:17:01;;;;;;;9.93;4.00;;;9.80;99.90;;;;;;5027466;28;20597;-72
2024/02/11 09:19:27;;;;;;;6.93;3.30;;;9.80;99.90;;;;;;5029617;28;20501;-66
2024/02/11 09:21:54;;;;;;;5.33;3.20;;;9.90;99.90;;;;;;5027921;28;20482;-73
2024/02/11 09:24:20;;;;;;;8.97;3.10;;;9.90;99.90;;;;;;5029184;28;20814;-69
2024/02/11 09:26:51;;;;;;;4.93;3.77;;;9.90;99.90;;;;;;5027625;28;20425;-64
2024/02/11 09:29:17;;;;;;;6.40;4.10;;;9.90;99.90;;;;;;5026954;28;20495;-67
2024/02/11 09:31:42;;;;;;;6.97;3.77;;;9.90;99.90;;;;;;5027548;28;21004;-67
2024/02/11 09:34:09;;;;;;;6.30;3.90;;;9.90;99.90;;;;;;5029192;28;20169;-70
2024/02/11 09:36:34;;;;;;;4.40;3.50;;;9.90;99.90;;;;;;5029357;28;20249;-67
2024/02/11 09:39:00;;;;;;;8.00;4.27;;;9.90;99.90;;;;;;5028465;28;20424;-70
2024/02/11 09:41:32;;;;;;;7.30;3.57;;;9.90;99.90;;;;;;5027956;28;20183;-70
2024/02/11 09:44:02;;;;;;;6.60;4.03;;;9.80;99.90;;;;;;5028380;28;21218;-73
2024/02/11 09:46:37;;;;;;;7.70;4.43;;;9.80;99.90;;;;;;5028796;28;20454;-68
2024/02/11 09:49:22;;;;;;;5.23;3.70;;;9.80;99.90;;;;;;5027420;28;20444;-66
2024/02/11 09:51:49;;;;;;;5.40;4.20;;;9.80;99.90;;;;;;5026495;28;20457;-71
2024/02/11 09:54:16;;;;;;;7.60;3.50;;;9.80;99.90;;;;;;5028681;28;20424;-69
2024/02/11 09:56:45;;;;;;;5.63;4.03;;;9.90;99.90;;;;;;5027078;28;20436;-65
2024/02/11 09:59:12;;;;;;;7.00;4.77;;;9.90;99.90;;;;;;5026880;28;20430;-68
2024/02/11 10:01:38;;;;;;;10.27;5.70;;;9.90;99.90;;;;;;5027116;28;20467;-67
2024/02/11 10:04:06;;;;;;;5.20;3.77;;;9.90;99.90;;;;;;5056753;28;20473;-68
2024/02/11 10:06:39;;;;;;;6.30;4.40;;;10.00;99.90;;;;;;5027218;28;20436;-66
2024/02/11 10:09:05;;;;;;;9.73;4.50;;;10.00;99.90;;;;;;5026805;28;20445;-66
2024/02/11 10:11:34;;;;;;;6.40;4.07;;;9.90;99.90;;;;;;5027759;28;21180;-68
2024/02/11 10:14:00;;;;;;;7.57;4.77;;;9.90;99.90;;;;;;5026342;28;20432;-68
2024/02/11 10:16:29;;;;;;;7.80;4.80;;;9.90;99.90;;;;;;5027075;28;20427;-68
2024/02/11 10:18:58;;;;;;;5.40;4.90;;;9.90;99.90;;;;;;5027164;28;20429;-67
2024/02/11 10:21:25;;;;;;;8.00;4.70;;;10.00;99.90;;;;;;5027167;28;20437;-70
2024/02/11 10:23:50;;;;;;;5.13;3.93;;;10.00;99.90;;;;;;5028271;28;20472;-67
2024/02/11 10:26:16;;;;;;;5.43;4.20;;;10.00;99.90;;;;;;5024504;28;20432;-66
2024/02/11 10:28:42;;;;;;;10.20;4.80;;;10.00;99.90;;;;;;5024923;28;20186;-69
2024/02/11 10:31:08;;;;;;;5.50;4.47;;;10.00;99.90;;;;;;5027464;28;20682;-69
2024/02/11 10:33:34;;;;;;;5.20;4.33;;;10.00;99.90;;;;;;5026883;28;20197;-68
2024/02/11 10:36:03;;;;;;;8.10;5.13;;;10.00;99.90;;;;;;5029065;28;20472;-66
2024/02/11 10:38:36;;;;;;;8.30;4.83;;;10.00;99.90;;;;;;5022026;28;20426;-70
2024/02/11 10:41:03;;;;;;;5.47;4.07;;;10.00;99.90;;;;;;5027450;28;20432;-65
2024/02/11 10:43:30;;;;;;;6.90;4.90;;;10.10;99.90;;;;;;5027547;28;20567;-67
2024/02/11 10:45:56;;;;;;;8.77;4.30;;;10.10;99.90;;;;;;5028067;28;20444;-68
2024/02/11 10:48:22;;;;;;;7.37;4.60;;;10.10;99.90;;;;;;5028599;28;20460;-68
2024/02/11 10:51:17;;;;;;;6.07;4.47;;;10.10;99.90;;;;;;5027199;28;21211;-71
2024/02/11 10:53:46;;;;;;;6.13;4.40;;;10.10;99.90;;;;;;5029575;28;20205;-70
2024/02/11 10:56:14;;;;;;;6.63;4.30;;;10.20;99.90;;;;;;5024467;28;21006;-66
2024/02/11 10:58:51;;;;;;;5.63;4.00;;;10.20;99.90;;;;;;5028267;28;20424;-73
2024/02/11 11:01:21;;;;;;;6.60;3.90;;;10.20;99.90;;;;;;5028021;28;20440;-66
2024/02/11 11:03:49;;;;;;;9.40;3.67;;;10.30;99.90;;;;;;5028130;28;20487;-73
2024/02/11 11:06:17;;;;;;;6.20;3.77;;;10.30;99.90;;;;;;5027329;28;20547;-65
2024/02/11 11:08:44;;;;;;;8.00;3.70;;;10.30;99.90;;;;;;5029826;28;20428;-67
2024/02/11 11:11:11;;;;;;;6.83;3.70;;;10.30;99.90;;;;;;5027497;28;20427;-68
2024/02/11 11:13:37;;;;;;;5.23;3.83;;;10.40;99.90;;;;;;5027476;28;20474;-70
2024/02/11 11:16:06;;;;;;;6.70;3.90;;;10.40;99.90;;;;;;5027012;28;20432;-72
2024/02/11 11:18:36;;;;;;;7.00;4.13;;;10.40;99.90;;;;;;5028320;28;20833;-69
2024/02/11 11:21:04;;;;;;;4.67;3.10;;;10.40;99.90;;;;;;5028399;28;20433;-66
2024/02/11 11:23:30;;;;;;;4.80;3.63;;;10.40;99.90;;;;;;5027703;28;20463;-66
2024/02/11 11:25:56;;;;;;;5.60;3.70;;;10.40;99.90;;;;;;5029191;28;20905;-67
2024/02/11 11:28:30;;;;;;;6.30;3.43;;;10.50;99.90;;;;;;5027033;28;20979;-67
2024/02/11 11:30:57;;;;;;;6.43;3.83;;;10.50;99.90;;;;;;5027977;28;20814;-66
2024/02/11 11:33:23;;;;;;;6.00;3.30;;;10.50;99.90;;;;;;5028772;28;20437;-68
2024/02/11 11:35:57;;;;;;;7.43;3.40;;;10.60;99.90;;;;;;5028566;28;20427;-68
2024/02/11 11:38:24;;;;;;;6.50;3.53;;;10.60;99.90;;;;;;5032347;28;20431;-70
2024/02/11 11:40:53;;;;;;;7.33;4.03;;;10.60;99.90;;;;;;5031885;28;20520;-71
2024/02/11 11:43:24;;;;;;;8.10;3.70;;;10.70;99.90;;;;;;5030959;28;20494;-73
2024/02/11 11:45:57;;;;;;;4.63;3.00;;;10.70;99.90;;;;;;5031132;28;20431;-67
2024/02/11 11:48:24;;;;;;;5.30;2.60;;;10.70;99.90;;;;;;5031669;28;20755;-70
2024/02/11 11:51:00;;;;;;;6.03;3.63;;;10.70;99.90;;;;;;5031763;28;20571;-67
2024/02/11 11:53:28;;;;;;;5.27;3.00;;;10.70;99.90;;;;;;5044184;28;20529;-71
2024/02/11 11:55:56;;;;;;;5.77;3.10;;;10.80;99.90;;;;;;5031345;28;20441;-71
2024/02/11 11:58:24;;;;;;;5.10;2.77;;;10.80;99.90;;;;;;5031735;28;20494;-70
2024/02/11 12:00:57;;;;;;;6.93;2.80;;;10.80;99.90;;;;;;5031142;28;20421;-68
2024/02/11 12:03:24;;;;;;;4.97;2.90;;;10.80;99.90;;;;;;5031347;28;20978;-71
2024/02/11 12:05:50;;;;;;;6.10;2.77;;;10.80;99.90;;;;;;5031079;28;20432;-65
2024/02/11 12:08:15;;;;;;;4.37;2.90;;;10.80;99.90;;;;;;5031580;28;20421;-68
2024/02/11 12:10:41;;;;;;;4.97;3.10;;;10.80;99.90;;;;;;5032321;28;20431;-73
2024/02/11 12:13:13;;;;;;;6.60;3.03;;;10.80;99.90;;;;;;5031721;28;20672;-70
2024/02/11 12:15:43;;;;;;;6.40;3.13;;;10.80;99.90;;;;;;5031055;28;20716;-69
2024/02/11 12:18:11;;;;;;;6.90;3.20;;;10.80;99.90;;;;;;5030675;28;20449;-70
2024/02/11 12:20:43;;;;;;;4.77;2.30;;;10.80;99.90;;;;;;5031077;28;20429;-70
2024/02/11 12:23:09;;;;;;;4.37;2.80;;;10.80;99.90;;;;;;5030621;28;20551;-69
2024/02/11 12:25:35;;;;;;;6.90;3.40;;;10.90;99.90;;;;;;5029492;28;20435;-67
2024/02/11 12:28:01;;;;;;;6.90;3.40;;;10.90;99.90;;;;;;5028636;28;20491;-66
2024/02/11 12:30:27;;;;;;;5.83;2.57;;;10.90;99.90;;;;;;5029648;28;20907;-70
2024/02/11 12:32:53;;;;;;;7.50;3.23;;;10.80;99.90;;;;;;5032436;28;20511;-71
2024/02/11 12:35:34;;;;;;;4.40;2.60;;;10.90;99.90;;;;;;5029879;28;20184;-66
2024/02/11 12:38:01;;;;;;;4.33;2.60;;;10.80;99.90;;;;;;5030573;28;20506;-67
2024/02/11 12:40:29;;;;;;;3.90;2.40;;;10.80;99.90;;;;;;5030864;28;20919;-71
2024/02/11 12:42:59;;;;;;;4.87;2.43;;;10.90;99.90;;;;;;5032026;28;20467;-66
2024/02/11 12:45:26;;;;;;;4.53;2.93;;;10.90;99.90;;;;;;5014194;28;20688;-71
2024/02/11 12:47:55;;;;;;;8.60;3.07;;;10.90;99.90;;;;;;5028301;28;21252;-67
2024/02/11 12:50:24;;;;;;;5.37;3.10;;;10.90;99.90;;;;;;5026901;28;20432;-69